sensor_id;sensor_type;location;lat;lon;timestamp;P1;durP1;ratioP1;P2;durP2;ratioP2
14774;SDS011;7479;47.042;15.160;2022-11-20T08:54:56;25.23;;;17.40;;
14774;SDS011;7479;47.042;15.160;2022-11-20T08:59:50;26.40;;;19.33;;
14774;SDS011;7479;47.042;15.160;2022-11-20T09:04:59;24.83;;;16.93;;
14774;SDS011;7479;47.042;15.160;2022-11-20T09:25:22;19.63;;;15.00;;
14774;SDS011;7479;47.042;15.160;2022-11-20T09:30:15;17.00;;;13.10;;
14774;SDS011;7479;47.042;15.160;2022-11-20T09:35:09;16.43;;;12.83;;
14774;SDS011;7479;47.042;15.160;2022-11-20T09:40:03;14.20;;;10.37;;
14774;SDS011;7479;47.042;15.160;2022-11-20T09:45:04;14.83;;;11.93;;
14774;SDS011;7479;47.042;15.160;2022-11-20T09:50:20;14.73;;;11.53;;
14774;SDS011;7479;47.042;15.160;2022-11-20T09:55:21;15.37;;;13.17;;
14774;SDS011;7479;47.042;15.160;2022-11-20T10:00:18;18.10;;;13.50;;
14774;SDS011;7479;47.042;15.160;2022-11-20T10:05:15;13.73;;;11.27;;
14774;SDS011;7479;47.042;15.160;2022-11-20T10:10:15;14.90;;;12.03;;
14774;SDS011;7479;47.042;15.160;2022-11-20T10:15:12;13.10;;;10.30;;
14774;SDS011;7479;47.042;15.160;2022-11-20T10:20:23;11.87;;;9.80;;
14774;SDS011;7479;47.042;15.160;2022-11-20T10:25:23;8.87;;;7.93;;
14774;SDS011;7479;47.042;15.160;2022-11-20T10:30:26;10.10;;;7.50;;
14774;SDS011;7479;47.042;15.160;2022-11-20T10:35:22;10.57;;;6.33;;
14774;SDS011;7479;47.042;15.160;2022-11-20T10:40:22;6.87;;;5.80;;
14774;SDS011;7479;47.042;15.160;2022-11-20T10:45:31;6.07;;;5.40;;
14774;SDS011;7479;47.042;15.160;2022-11-20T10:50:43;8.33;;;6.30;;
14774;SDS011;7479;47.042;15.160;2022-11-20T10:55:46;7.03;;;6.20;;
14774;SDS011;7479;47.042;15.160;2022-11-20T11:00:45;6.67;;;5.93;;
14774;SDS011;7479;47.042;15.160;2022-11-20T11:05:39;6.27;;;5.10;;
14774;SDS011;7479;47.042;15.160;2022-11-20T11:10:39;4.50;;;4.10;;
14774;SDS011;7479;47.042;15.160;2022-11-20T11:15:40;4.20;;;3.80;;
14774;SDS011;7479;47.042;15.160;2022-11-20T11:20:35;4.90;;;4.30;;
14774;SDS011;7479;47.042;15.160;2022-11-20T11:25:30;5.50;;;4.90;;
14774;SDS011;7479;47.042;15.160;2022-11-20T11:30:26;5.97;;;4.80;;
14774;SDS011;7479;47.042;15.160;2022-11-20T11:35:24;6.57;;;4.57;;
14774;SDS011;7479;47.042;15.160;2022-11-20T11:40:21;4.20;;;3.80;;
14774;SDS011;7479;47.042;15.160;2022-11-20T11:45:18;6.63;;;5.67;;
14774;SDS011;7479;47.042;15.160;2022-11-20T11:50:14;6.77;;;5.40;;
14774;SDS011;7479;47.042;15.160;2022-11-20T11:55:11;6.97;;;6.27;;
14774;SDS011;7479;47.042;15.160;2022-11-20T12:00:11;7.00;;;6.40;;
14774;SDS011;7479;47.042;15.160;2022-11-20T12:05:14;7.33;;;6.63;;
14774;SDS011;7479;47.042;15.160;2022-11-20T12:10:14;8.23;;;6.60;;
14774;SDS011;7479;47.042;15.160;2022-11-20T12:15:16;6.43;;;5.87;;
14774;SDS011;7479;47.042;15.160;2022-11-20T12:20:17;7.40;;;6.60;;
14774;SDS011;7479;47.042;15.160;2022-11-20T12:25:16;6.50;;;5.90;;
14774;SDS011;7479;47.042;15.160;2022-11-20T12:30:15;6.63;;;6.03;;
14774;SDS011;7479;47.042;15.160;2022-11-20T12:35:17;5.73;;;5.17;;
14774;SDS011;7479;47.042;15.160;2022-11-20T12:40:27;5.87;;;5.33;;
14774;SDS011;7479;47.042;15.160;2022-11-20T12:50:55;7.03;;;6.33;;
14774;SDS011;7479;47.042;15.160;2022-11-20T12:56:17;7.33;;;6.20;;
14774;SDS011;7479;47.042;15.160;2022-11-20T13:01:24;7.20;;;6.50;;
14774;SDS011;7479;47.042;15.160;2022-11-20T13:06:35;7.43;;;6.60;;
14774;SDS011;7479;47.042;15.160;2022-11-20T13:11:31;9.10;;;7.47;;
14774;SDS011;7479;47.042;15.160;2022-11-20T13:16:31;7.60;;;6.67;;
14774;SDS011;7479;47.042;15.160;2022-11-20T13:21:37;6.07;;;5.27;;
14774;SDS011;7479;47.042;15.160;2022-11-20T13:26:33;6.87;;;6.13;;
14774;SDS011;7479;47.042;15.160;2022-11-20T13:31:31;7.43;;;6.63;;
14774;SDS011;7479;47.042;15.160;2022-11-20T13:36:28;6.13;;;5.53;;
14774;SDS011;7479;47.042;15.160;2022-11-20T13:41:26;5.93;;;5.33;;
14774;SDS011;7479;47.042;15.160;2022-11-20T13:46:22;8.23;;;5.67;;
14774;SDS011;7479;47.042;15.160;2022-11-20T13:51:22;8.23;;;6.83;;
14774;SDS011;7479;47.042;15.160;2022-11-20T13:56:28;7.50;;;6.20;;
14774;SDS011;7479;47.042;15.160;2022-11-20T14:01:31;5.73;;;5.23;;
14774;SDS011;7479;47.042;15.160;2022-11-20T14:06:26;6.90;;;6.30;;
14774;SDS011;7479;47.042;15.160;2022-11-20T14:11:27;16.03;;;10.10;;
14774;SDS011;7479;47.042;15.160;2022-11-20T14:16:23;17.93;;;12.40;;
14774;SDS011;7479;47.042;15.160;2022-11-20T14:21:26;20.03;;;14.47;;
14774;SDS011;7479;47.042;15.160;2022-11-20T14:26:22;16.03;;;8.97;;
14774;SDS011;7479;47.042;15.160;2022-11-20T14:31:18;15.73;;;14.07;;
14774;SDS011;7479;47.042;15.160;2022-11-20T14:36:17;12.50;;;9.60;;
14774;SDS011;7479;47.042;15.160;2022-11-20T14:41:16;15.43;;;13.37;;
14774;SDS011;7479;47.042;15.160;2022-11-20T14:46:12;18.50;;;12.43;;
14774;SDS011;7479;47.042;15.160;2022-11-20T14:51:10;14.67;;;12.03;;
14774;SDS011;7479;47.042;15.160;2022-11-20T14:56:05;11.93;;;10.13;;
14774;SDS011;7479;47.042;15.160;2022-11-20T15:01:01;12.17;;;9.00;;
14774;SDS011;7479;47.042;15.160;2022-11-20T15:05:57;11.90;;;9.70;;
14774;SDS011;7479;47.042;15.160;2022-11-20T15:10:54;14.77;;;12.80;;
14774;SDS011;7479;47.042;15.160;2022-11-20T15:15:48;15.67;;;12.73;;
14774;SDS011;7479;47.042;15.160;2022-11-20T15:20:45;45.10;;;32.80;;
14774;SDS011;7479;47.042;15.160;2022-11-20T15:25:39;10.43;;;9.10;;
14774;SDS011;7479;47.042;15.160;2022-11-20T15:30:35;21.17;;;15.53;;
14774;SDS011;7479;47.042;15.160;2022-11-20T15:35:29;26.00;;;19.50;;
14774;SDS011;7479;47.042;15.160;2022-11-20T15:40:22;23.60;;;19.00;;
14774;SDS011;7479;47.042;15.160;2022-11-20T15:45:16;32.93;;;23.63;;
14774;SDS011;7479;47.042;15.160;2022-11-20T15:50:12;24.33;;;17.93;;
14774;SDS011;7479;47.042;15.160;2022-11-20T15:55:10;24.87;;;18.07;;
14774;SDS011;7479;47.042;15.160;2022-11-20T16:00:05;20.93;;;15.90;;
14774;SDS011;7479;47.042;15.160;2022-11-20T16:05:01;21.23;;;16.17;;
14774;SDS011;7479;47.042;15.160;2022-11-20T16:09:56;20.40;;;16.67;;
14774;SDS011;7479;47.042;15.160;2022-11-20T16:14:49;19.13;;;15.30;;
14774;SDS011;7479;47.042;15.160;2022-11-20T16:20:12;18.20;;;13.73;;
14774;SDS011;7479;47.042;15.160;2022-11-20T16:25:08;17.30;;;15.27;;
14774;SDS011;7479;47.042;15.160;2022-11-20T16:30:02;20.33;;;15.47;;
14774;SDS011;7479;47.042;15.160;2022-11-20T16:34:57;21.50;;;17.03;;
14774;SDS011;7479;47.042;15.160;2022-11-20T16:39:50;24.60;;;17.63;;
14774;SDS011;7479;47.042;15.160;2022-11-20T16:44:46;22.90;;;17.73;;
14774;SDS011;7479;47.042;15.160;2022-11-20T16:49:40;18.87;;;13.67;;
